createdAt,value
2022-12-03T00:00:15.173Z,3.40
2022-12-03T00:02:43.406Z,3.40
2022-12-03T00:05:12.022Z,3.40
2022-12-03T00:07:40.041Z,3.40
2022-12-03T00:10:09.736Z,3.40
2022-12-03T00:12:39.372Z,3.30
2022-12-03T00:15:09.371Z,3.40
2022-12-03T00:17:37.677Z,3.40
2022-12-03T00:20:07.248Z,3.40
2022-12-03T00:22:35.464Z,3.40
2022-12-03T00:25:03.491Z,3.40
2022-12-03T00:27:31.572Z,3.40
2022-12-03T00:30:01.021Z,3.40
2022-12-03T00:32:29.048Z,3.30
2022-12-03T00:34:57.195Z,3.40
2022-12-03T00:37:25.386Z,3.40
2022-12-03T00:39:53.444Z,3.40
2022-12-03T00:42:21.534Z,3.40
2022-12-03T00:44:49.827Z,3.40
2022-12-03T00:47:19.335Z,3.40
2022-12-03T00:49:47.438Z,3.40
2022-12-03T00:52:15.507Z,3.40
2022-12-03T00:54:43.547Z,3.40
2022-12-03T00:57:11.689Z,3.40
2022-12-03T00:59:39.775Z,3.40
2022-12-03T01:02:08.087Z,3.40
2022-12-03T01:04:37.763Z,3.40
2022-12-03T01:07:05.878Z,3.30
2022-12-03T01:09:33.904Z,3.30
2022-12-03T01:12:02.020Z,3.30
2022-12-03T01:14:30.042Z,3.30
2022-12-03T01:16:58.140Z,3.30
2022-12-03T01:19:26.229Z,3.30
2022-12-03T01:21:55.952Z,3.30
2022-12-03T01:24:24.046Z,3.30
2022-12-03T01:26:52.232Z,3.40
2022-12-03T01:29:20.435Z,3.30
2022-12-03T01:32:06.384Z,3.40
2022-12-03T01:34:34.392Z,3.30
2022-12-03T01:37:04.038Z,3.30
2022-12-03T01:39:32.089Z,3.40
2022-12-03T01:42:00.288Z,3.40
2022-12-03T01:44:31.077Z,3.40
2022-12-03T01:47:02.362Z,3.40
2022-12-03T01:49:33.149Z,3.40
2022-12-03T01:52:02.947Z,3.30
2022-12-03T01:54:36.801Z,3.30
2022-12-03T01:57:05.214Z,3.40
2022-12-03T01:59:37.635Z,3.40
2022-12-03T02:02:13.800Z,3.40
2022-12-03T02:04:42.286Z,3.30
2022-12-03T02:07:26.774Z,3.40
2022-12-03T02:09:56.648Z,3.40
2022-12-03T02:12:31.185Z,3.40
2022-12-03T02:15:00.263Z,3.40
2022-12-03T02:17:29.462Z,3.40
2022-12-03T02:19:58.182Z,3.40
2022-12-03T02:22:35.939Z,3.40
2022-12-03T02:25:17.106Z,3.40
2022-12-03T02:27:46.357Z,3.40
2022-12-03T02:30:17.682Z,3.40
2022-12-03T02:32:46.177Z,3.40
2022-12-03T02:35:17.516Z,3.40
2022-12-03T02:37:47.582Z,3.40
2022-12-03T02:40:21.611Z,3.40
2022-12-03T02:42:54.524Z,3.40
2022-12-03T02:45:26.451Z,3.40
2022-12-03T02:47:59.775Z,3.40
2022-12-03T02:50:31.231Z,3.40
2022-12-03T02:53:02.722Z,3.40
2022-12-03T02:55:37.049Z,3.40
2022-12-03T02:58:07.259Z,3.40
2022-12-03T03:00:37.238Z,3.40
2022-12-03T03:03:08.298Z,3.40
2022-12-03T03:05:39.399Z,3.40
2022-12-03T03:08:09.138Z,3.40
2022-12-03T03:10:39.697Z,3.40
2022-12-03T03:13:11.005Z,3.40
2022-12-03T03:15:40.527Z,3.50
2022-12-03T03:18:09.914Z,3.40
2022-12-03T03:20:38.646Z,3.50
2022-12-03T03:23:13.340Z,3.50
2022-12-03T03:25:45.745Z,3.50
2022-12-03T03:28:15.150Z,3.50
2022-12-03T03:30:44.673Z,3.50
2022-12-03T03:33:14.416Z,3.50
2022-12-03T03:35:43.624Z,3.50
2022-12-03T03:38:12.010Z,3.50
2022-12-03T03:40:42.200Z,3.50
2022-12-03T03:43:10.714Z,3.50
2022-12-03T03:45:38.940Z,3.50
2022-12-03T03:48:07.915Z,3.50
2022-12-03T03:50:36.433Z,3.60
2022-12-03T03:53:06.282Z,3.60
2022-12-03T03:55:34.832Z,3.60
2022-12-03T03:58:04.394Z,3.60
2022-12-03T04:00:33.044Z,3.60
2022-12-03T04:03:01.237Z,3.60
2022-12-03T04:05:29.699Z,3.60
2022-12-03T04:07:58.836Z,3.60
2022-12-03T04:10:44.522Z,3.60
2022-12-03T04:13:14.065Z,3.60
2022-12-03T04:15:42.181Z,3.60
2022-12-03T04:18:28.142Z,3.60
2022-12-03T04:21:16.916Z,3.60
2022-12-03T04:23:44.138Z,3.60
2022-12-03T04:26:29.413Z,3.60
2022-12-03T04:28:58.919Z,3.60
2022-12-03T04:31:44.565Z,3.60
2022-12-03T04:34:30.004Z,3.60
2022-12-03T04:36:58.359Z,3.60
2022-12-03T04:39:26.494Z,3.60
2022-12-03T04:41:54.680Z,3.60
2022-12-03T04:44:39.104Z,3.60
2022-12-03T04:47:10.345Z,3.60
2022-12-03T04:49:39.977Z,3.60
2022-12-03T04:52:09.162Z,3.60
2022-12-03T04:54:37.493Z,3.60
2022-12-03T04:57:06.340Z,3.60
2022-12-03T04:59:36.624Z,3.60
2022-12-03T05:02:05.650Z,3.60
2022-12-03T05:04:33.913Z,3.50
2022-12-03T05:07:01.943Z,3.60
2022-12-03T05:09:30.068Z,3.60
2022-12-03T05:11:58.285Z,3.60
2022-12-03T05:14:26.325Z,3.60
2022-12-03T05:16:55.898Z,3.60
2022-12-03T05:19:44.330Z,3.50
2022-12-03T05:22:12.439Z,3.60
2022-12-03T05:24:40.556Z,3.60
2022-12-03T05:27:08.769Z,3.50
2022-12-03T05:29:36.936Z,3.50
2022-12-03T05:32:06.823Z,3.60
2022-12-03T05:34:34.978Z,3.60
2022-12-03T05:37:03.285Z,3.60
2022-12-03T05:39:31.374Z,3.60
2022-12-03T05:42:16.981Z,3.50
2022-12-03T05:44:45.227Z,3.50
2022-12-03T05:47:14.715Z,3.40
2022-12-03T05:49:42.772Z,3.40
2022-12-03T05:52:10.895Z,3.40
2022-12-03T05:54:39.195Z,3.40
2022-12-03T05:57:07.368Z,3.40
2022-12-03T05:59:35.530Z,3.40
2022-12-03T06:02:03.834Z,3.40
2022-12-03T06:04:33.376Z,3.40
2022-12-03T06:07:01.388Z,3.40
2022-12-03T06:09:29.599Z,3.40
2022-12-03T06:11:57.691Z,3.30
2022-12-03T06:14:25.837Z,3.30
2022-12-03T06:16:54.046Z,3.30
2022-12-03T06:19:22.668Z,3.30
2022-12-03T06:21:52.283Z,3.30
2022-12-03T06:24:20.464Z,3.30
2022-12-03T06:26:48.656Z,3.30
2022-12-03T06:29:16.855Z,3.30
2022-12-03T06:31:44.958Z,3.30
2022-12-03T06:34:13.117Z,3.30
2022-12-03T06:36:41.262Z,3.30
2022-12-03T06:39:10.728Z,3.30
2022-12-03T06:41:38.863Z,3.30
2022-12-03T06:44:07.236Z,3.30
2022-12-03T06:46:35.625Z,3.30
2022-12-03T06:49:04.087Z,3.30
2022-12-03T06:51:32.215Z,3.30
2022-12-03T06:54:00.323Z,3.30
2022-12-03T06:56:35.885Z,3.30
2022-12-03T06:59:06.137Z,3.20
2022-12-03T07:01:34.493Z,3.20
2022-12-03T07:04:02.730Z,3.20
2022-12-03T07:06:30.801Z,3.20
2022-12-03T07:08:59.361Z,3.20
2022-12-03T07:11:40.059Z,3.20
2022-12-03T07:14:11.167Z,3.20
2022-12-03T07:16:40.586Z,3.20
2022-12-03T07:19:08.969Z,3.20
2022-12-03T07:21:37.118Z,3.20
2022-12-03T07:24:05.582Z,3.20
2022-12-03T07:26:35.226Z,3.20
2022-12-03T07:29:03.472Z,3.20
2022-12-03T07:31:32.012Z,3.20
2022-12-03T07:34:00.198Z,3.20
2022-12-03T07:36:28.403Z,3.20
2022-12-03T07:38:56.622Z,3.10
2022-12-03T07:41:24.795Z,3.10
2022-12-03T07:43:54.403Z,3.20
2022-12-03T07:46:22.630Z,3.20
2022-12-03T07:48:50.662Z,3.10
2022-12-03T07:51:18.913Z,3.20
2022-12-03T07:53:47.087Z,3.10
2022-12-03T07:56:15.214Z,3.10
2022-12-03T07:58:43.357Z,3.20
2022-12-03T08:01:13.045Z,3.20
2022-12-03T08:03:42.956Z,3.10
2022-12-03T08:06:11.364Z,3.20
2022-12-03T08:08:40.645Z,3.20
2022-12-03T08:11:13.806Z,3.20
2022-12-03T08:13:42.088Z,3.20
2022-12-03T08:16:17.950Z,3.20
2022-12-03T08:18:46.682Z,3.10
2022-12-03T08:21:16.513Z,3.20
2022-12-03T08:23:45.434Z,3.20
2022-12-03T08:26:20.611Z,3.20
2022-12-03T08:28:48.968Z,3.10
2022-12-03T08:31:20.954Z,3.10
2022-12-03T08:33:51.231Z,3.10
2022-12-03T08:36:23.139Z,3.20
2022-12-03T08:38:53.050Z,3.20
2022-12-03T08:41:35.769Z,3.10
2022-12-03T08:44:15.785Z,3.20
2022-12-03T08:46:46.014Z,3.10
2022-12-03T08:49:16.080Z,3.20
2022-12-03T08:51:44.497Z,3.20
2022-12-03T08:54:16.930Z,3.20
2022-12-03T08:56:45.244Z,3.10
2022-12-03T08:59:26.441Z,3.00
2022-12-03T09:01:56.659Z,3.00
2022-12-03T09:04:27.946Z,3.10
2022-12-03T09:06:56.828Z,3.00
2022-12-03T09:09:25.743Z,3.00
2022-12-03T09:11:54.830Z,3.00
2022-12-03T09:14:23.675Z,3.10
2022-12-03T09:16:55.572Z,3.10
2022-12-03T09:19:26.442Z,3.00
2022-12-03T09:21:55.282Z,3.00
2022-12-03T09:24:23.663Z,3.00
2022-12-03T09:26:52.072Z,3.00
2022-12-03T09:29:20.877Z,3.00
2022-12-03T09:31:49.245Z,3.10
2022-12-03T09:34:17.383Z,3.00
2022-12-03T09:36:47.112Z,3.00
2022-12-03T09:39:15.256Z,3.00
2022-12-03T09:41:43.700Z,3.00
2022-12-03T09:44:17.660Z,3.00
2022-12-03T09:46:47.548Z,3.00
2022-12-03T09:49:17.622Z,2.90
2022-12-03T09:51:47.598Z,3.00
2022-12-03T09:54:23.995Z,2.90
2022-12-03T09:56:52.943Z,2.80
2022-12-03T09:59:22.810Z,2.90
2022-12-03T10:01:51.189Z,2.90
2022-12-03T10:04:19.885Z,2.90
2022-12-03T10:06:50.898Z,2.90
2022-12-03T10:09:24.800Z,2.90
2022-12-03T10:11:53.231Z,2.90
2022-12-03T10:14:21.604Z,2.90
2022-12-03T10:16:50.421Z,2.90
2022-12-03T10:19:23.692Z,2.90
2022-12-03T10:21:53.168Z,2.90
2022-12-03T10:24:28.552Z,2.80
2022-12-03T10:26:58.078Z,2.90
2022-12-03T10:29:33.337Z,2.90
2022-12-03T10:32:04.496Z,2.80
2022-12-03T10:34:34.624Z,2.90
2022-12-03T10:37:15.779Z,2.90
2022-12-03T10:39:58.912Z,2.90
2022-12-03T10:42:28.850Z,2.80
2022-12-03T10:45:24.122Z,2.80
2022-12-03T10:48:07.883Z,2.80
2022-12-03T10:50:36.904Z,2.80
2022-12-03T10:53:06.496Z,2.70
2022-12-03T10:55:40.766Z,2.80
2022-12-03T10:58:16.985Z,2.70
2022-12-03T11:00:45.068Z,2.70
2022-12-03T11:03:20.484Z,2.70
2022-12-03T11:05:48.868Z,2.70
2022-12-03T11:08:20.697Z,2.70
2022-12-03T11:10:58.331Z,2.70
2022-12-03T11:13:47.192Z,2.80
2022-12-03T11:16:35.481Z,2.80
2022-12-03T11:19:04.646Z,2.80
2022-12-03T11:21:32.976Z,2.80
2022-12-03T11:24:21.038Z,2.80
2022-12-03T11:27:28.113Z,2.80
2022-12-03T11:30:01.647Z,2.80
2022-12-03T11:33:00.436Z,2.80
2022-12-03T11:35:35.712Z,2.70
2022-12-03T11:38:40.951Z,2.70
2022-12-03T11:41:12.351Z,2.80
2022-12-03T11:44:20.714Z,2.80
2022-12-03T11:46:49.644Z,2.80
2022-12-03T11:49:26.425Z,2.70
2022-12-03T11:51:54.562Z,2.80
2022-12-03T11:54:24.699Z,2.70
2022-12-03T11:56:56.082Z,2.80
2022-12-03T11:59:24.264Z,2.70
2022-12-03T12:01:52.533Z,2.70
2022-12-03T12:04:32.735Z,2.70
2022-12-03T12:07:01.733Z,2.70
2022-12-03T12:09:49.643Z,2.70
2022-12-03T12:12:31.857Z,2.70
2022-12-03T12:15:00.634Z,2.80
2022-12-03T12:17:34.412Z,2.80
2022-12-03T12:20:25.629Z,2.70
2022-12-03T12:22:54.468Z,2.70
2022-12-03T12:25:40.720Z,2.70
2022-12-03T12:28:10.368Z,2.70
2022-12-03T12:30:38.501Z,2.60
2022-12-03T12:33:18.492Z,2.70
2022-12-03T12:35:46.712Z,2.70
2022-12-03T12:38:18.442Z,2.70
2022-12-03T12:40:49.114Z,2.70
2022-12-03T12:43:24.816Z,2.70
2022-12-03T12:45:55.466Z,2.70
2022-12-03T12:48:26.524Z,2.70
2022-12-03T12:51:07.640Z,2.60
2022-12-03T12:53:37.214Z,2.60
2022-12-03T12:56:12.713Z,2.70
2022-12-03T12:58:43.160Z,2.60
2022-12-03T13:01:20.935Z,2.60
2022-12-03T13:03:52.425Z,2.60
2022-12-03T13:06:26.371Z,2.50
2022-12-03T13:08:55.418Z,2.50
2022-12-03T13:11:37.038Z,2.50
2022-12-03T13:14:14.375Z,2.60
2022-12-03T13:16:43.138Z,2.60
2022-12-03T13:19:27.272Z,2.60
2022-12-03T13:21:56.512Z,2.60
2022-12-03T13:24:31.679Z,2.60
2022-12-03T13:27:02.144Z,2.60
2022-12-03T13:29:33.954Z,2.60
2022-12-03T13:32:10.788Z,2.50
2022-12-03T13:34:39.323Z,2.50
2022-12-03T13:37:15.353Z,2.60
2022-12-03T13:39:47.515Z,2.60
2022-12-03T13:42:38.370Z,2.60
2022-12-03T13:45:30.775Z,2.50
2022-12-03T13:48:00.925Z,2.50
2022-12-03T13:50:35.979Z,2.50
2022-12-03T13:53:20.845Z,2.50
2022-12-03T13:55:51.501Z,2.60
2022-12-03T13:58:20.054Z,2.50
2022-12-03T14:00:50.157Z,2.40
2022-12-03T14:03:18.978Z,2.40
2022-12-03T14:05:47.434Z,2.50
2022-12-03T14:08:15.779Z,2.50
2022-12-03T14:10:44.280Z,2.40
2022-12-03T14:13:12.964Z,2.40
2022-12-03T14:15:41.380Z,2.40
2022-12-03T14:18:11.565Z,2.40
2022-12-03T14:20:39.881Z,2.40
2022-12-03T14:23:08.288Z,2.40
2022-12-03T14:25:36.844Z,2.50
2022-12-03T14:28:08.714Z,2.40
2022-12-03T14:30:37.399Z,2.40
2022-12-03T14:33:06.171Z,2.40
2022-12-03T14:35:36.217Z,2.40
2022-12-03T14:38:04.599Z,2.40
2022-12-03T14:40:33.093Z,2.50
2022-12-03T14:43:01.448Z,2.50
2022-12-03T14:45:30.716Z,2.50
2022-12-03T14:47:59.159Z,2.50
2022-12-03T14:50:27.446Z,2.50
2022-12-03T14:52:57.318Z,2.50
2022-12-03T14:55:25.826Z,2.40
2022-12-03T14:57:54.130Z,2.30
2022-12-03T15:00:22.942Z,2.30
2022-12-03T15:02:51.416Z,2.20
2022-12-03T15:05:27.921Z,2.20
2022-12-03T15:07:58.259Z,2.20
2022-12-03T15:10:26.861Z,2.20
2022-12-03T15:13:10.149Z,2.20
2022-12-03T15:15:38.571Z,2.20
2022-12-03T15:18:06.744Z,2.20
2022-12-03T15:20:35.714Z,2.20
2022-12-03T15:23:07.812Z,2.20
2022-12-03T15:25:38.079Z,2.20
2022-12-03T15:28:06.384Z,2.20
2022-12-03T15:30:36.358Z,2.20
2022-12-03T15:33:05.290Z,2.10
2022-12-03T15:35:33.827Z,2.10
2022-12-03T15:38:02.133Z,2.20
2022-12-03T15:40:31.923Z,2.30
2022-12-03T15:43:00.076Z,2.20
2022-12-03T15:45:28.301Z,2.30
2022-12-03T15:47:56.437Z,2.30
2022-12-03T15:50:24.759Z,2.20
2022-12-03T15:52:52.975Z,2.20
2022-12-03T15:55:21.193Z,2.10
2022-12-03T15:57:50.717Z,2.20
2022-12-03T16:00:19.572Z,2.20
2022-12-03T16:02:52.735Z,2.20
2022-12-03T16:05:21.470Z,2.20
2022-12-03T16:07:49.536Z,2.20
2022-12-03T16:10:21.372Z,2.20
2022-12-03T16:15:25.132Z,2.10
2022-12-03T16:17:55.130Z,2.20
2022-12-03T16:20:23.416Z,2.20
2022-12-03T16:22:52.167Z,2.10
2022-12-03T16:25:20.533Z,2.20
2022-12-03T16:27:50.193Z,2.20
2022-12-03T16:30:18.659Z,2.20
2022-12-03T16:32:46.819Z,2.20
2022-12-03T16:35:15.065Z,2.20
2022-12-03T16:37:43.291Z,2.30
2022-12-03T16:40:12.298Z,2.20
2022-12-03T16:42:40.776Z,2.20
2022-12-03T16:45:33.730Z,2.20
2022-12-03T16:48:02.678Z,2.20
2022-12-03T16:50:30.769Z,2.20
2022-12-03T16:52:59.207Z,2.20
2022-12-03T16:55:27.280Z,2.10
2022-12-03T16:57:55.591Z,2.20
2022-12-03T17:00:27.313Z,2.10
2022-12-03T17:02:55.578Z,2.10
2022-12-03T17:05:24.866Z,2.10
2022-12-03T17:07:53.008Z,2.10
2022-12-03T17:10:21.276Z,2.10
2022-12-03T17:15:39.666Z,2.10
2022-12-03T17:18:08.599Z,2.10
2022-12-03T17:20:37.452Z,2.10
2022-12-03T17:23:05.938Z,2.10
2022-12-03T17:25:34.932Z,2.00
2022-12-03T17:28:03.300Z,2.10
2022-12-03T17:30:31.553Z,2.00
2022-12-03T17:33:01.024Z,2.10
2022-12-03T17:35:29.720Z,2.10
2022-12-03T17:37:57.921Z,2.00
2022-12-03T17:40:26.150Z,2.00
2022-12-03T17:42:54.305Z,2.00
2022-12-03T17:45:22.526Z,2.00
2022-12-03T17:47:50.605Z,2.00
2022-12-03T17:50:20.182Z,2.00
2022-12-03T17:52:48.333Z,2.00
2022-12-03T17:55:27.804Z,2.00
2022-12-03T17:58:01.963Z,1.90
2022-12-03T18:00:30.425Z,2.00
2022-12-03T18:02:59.341Z,1.90
2022-12-03T18:05:28.879Z,2.00
2022-12-03T18:07:57.386Z,2.00
2022-12-03T18:10:25.729Z,2.00
2022-12-03T18:12:57.085Z,1.90
2022-12-03T18:15:29.670Z,1.90
2022-12-03T18:17:57.938Z,1.90
2022-12-03T18:20:26.106Z,1.90
2022-12-03T18:22:55.693Z,1.90
2022-12-03T18:25:23.893Z,1.90
2022-12-03T18:27:52.151Z,1.90
2022-12-03T18:30:20.555Z,2.00
2022-12-03T18:32:48.934Z,2.00
2022-12-03T18:35:17.219Z,1.90
2022-12-03T18:37:45.583Z,1.90
2022-12-03T18:40:20.104Z,2.00
2022-12-03T18:42:48.931Z,1.90
2022-12-03T18:45:17.610Z,1.90
2022-12-03T18:47:46.285Z,1.80
2022-12-03T18:50:15.142Z,1.80
2022-12-03T18:52:43.455Z,1.80
2022-12-03T18:55:19.435Z,1.80
2022-12-03T18:57:47.625Z,1.70
2022-12-03T19:00:17.131Z,1.70
2022-12-03T19:03:02.557Z,1.80
2022-12-03T19:05:32.978Z,1.80
2022-12-03T19:08:01.105Z,1.70
2022-12-03T19:10:30.714Z,1.80
2022-12-03T19:12:59.106Z,1.70
2022-12-03T19:15:27.308Z,1.70
2022-12-03T19:17:55.524Z,1.70
2022-12-03T19:20:23.665Z,1.80
2022-12-03T19:22:52.853Z,1.70
2022-12-03T19:25:21.023Z,1.70
2022-12-03T19:27:54.924Z,1.80
2022-12-03T19:30:23.132Z,1.80
2022-12-03T19:32:51.970Z,1.70
2022-12-03T19:35:21.436Z,1.70
2022-12-03T19:37:49.859Z,1.80
2022-12-03T19:40:18.699Z,1.80
2022-12-03T19:42:46.996Z,1.80
2022-12-03T19:45:16.776Z,1.80
2022-12-03T19:47:44.958Z,1.80
2022-12-03T19:50:21.059Z,1.80
2022-12-03T19:52:51.275Z,1.80
2022-12-03T19:55:20.488Z,1.70
2022-12-03T19:57:48.788Z,1.80
2022-12-03T20:00:18.936Z,1.80
2022-12-03T20:02:50.107Z,1.80
2022-12-03T20:05:18.593Z,1.70
2022-12-03T20:07:46.640Z,1.70
2022-12-03T20:10:14.971Z,1.70
2022-12-03T20:12:43.086Z,1.70
2022-12-03T20:15:12.448Z,1.80
2022-12-03T20:17:42.590Z,1.80
2022-12-03T20:20:11.586Z,1.70
2022-12-03T20:22:39.811Z,1.70
2022-12-03T20:25:08.801Z,1.70
2022-12-03T20:27:36.940Z,1.70
2022-12-03T20:30:07.314Z,1.70
2022-12-03T20:32:39.415Z,1.80
2022-12-03T20:35:13.123Z,1.70
2022-12-03T20:37:41.235Z,1.70
2022-12-03T20:40:11.660Z,1.70
2022-12-03T20:42:39.884Z,1.70
2022-12-03T20:45:09.684Z,1.70
2022-12-03T20:47:37.838Z,1.70
2022-12-03T20:50:07.162Z,1.70
2022-12-03T20:52:36.644Z,1.70
2022-12-03T20:55:05.026Z,1.70
2022-12-03T20:57:33.137Z,1.70
2022-12-03T21:00:01.266Z,1.60
2022-12-03T21:02:29.487Z,1.70
2022-12-03T21:04:57.695Z,1.60
2022-12-03T21:07:25.675Z,1.70
2022-12-03T21:09:55.287Z,1.60
2022-12-03T21:12:23.720Z,1.70
2022-12-03T21:14:51.937Z,1.60
2022-12-03T21:17:20.485Z,1.60
2022-12-03T21:19:49.136Z,1.60
2022-12-03T21:22:17.366Z,1.60
2022-12-03T21:24:45.568Z,1.60
2022-12-03T21:27:21.146Z,1.60
2022-12-03T21:29:50.087Z,1.60
2022-12-03T21:32:18.241Z,1.60
2022-12-03T21:34:46.339Z,1.60
2022-12-03T21:37:14.420Z,1.60
2022-12-03T21:39:42.533Z,1.60
2022-12-03T21:42:34.235Z,1.70
2022-12-03T21:45:00.093Z,1.60
2022-12-03T21:47:32.130Z,1.70
2022-12-03T21:50:05.339Z,1.60
2022-12-03T21:52:34.294Z,1.60
2022-12-03T21:55:02.433Z,1.60
2022-12-03T21:57:30.606Z,1.70
2022-12-03T22:00:00.655Z,1.60
2022-12-03T22:02:28.917Z,1.60
2022-12-03T22:04:57.585Z,1.60
2022-12-03T22:07:25.699Z,1.60
2022-12-03T22:09:54.187Z,1.60
2022-12-03T22:12:22.439Z,1.60
2022-12-03T22:14:50.596Z,1.60
2022-12-03T22:17:20.073Z,1.50
2022-12-03T22:19:48.883Z,1.60
2022-12-03T22:22:17.025Z,1.60
2022-12-03T22:24:45.746Z,1.60
2022-12-03T22:27:15.508Z,1.60
2022-12-03T22:29:43.574Z,1.60
2022-12-03T22:32:11.694Z,1.50
2022-12-03T22:34:42.688Z,1.50
2022-12-03T22:37:10.750Z,1.50
2022-12-03T22:39:38.842Z,1.50
2022-12-03T22:42:07.060Z,1.50
2022-12-03T22:44:35.273Z,1.50
2022-12-03T22:47:03.388Z,1.50
2022-12-03T22:49:31.603Z,1.50
2022-12-03T22:52:01.044Z,1.50
2022-12-03T22:54:29.069Z,1.50
2022-12-03T22:56:57.729Z,1.50
2022-12-03T22:59:25.867Z,1.50
2022-12-03T23:01:53.944Z,1.60
2022-12-03T23:04:22.159Z,1.50
2022-12-03T23:06:50.219Z,1.50
2022-12-03T23:09:19.786Z,1.50
2022-12-03T23:11:48.131Z,1.50
2022-12-03T23:14:16.235Z,1.50
2022-12-03T23:16:44.336Z,1.50
2022-12-03T23:19:12.817Z,1.50
2022-12-03T23:21:40.857Z,1.50
2022-12-03T23:24:09.010Z,1.50
2022-12-03T23:26:39.607Z,1.50
2022-12-03T23:29:08.604Z,1.50
2022-12-03T23:31:37.280Z,1.50
2022-12-03T23:34:05.825Z,1.50
2022-12-03T23:36:35.023Z,1.50
2022-12-03T23:39:03.162Z,1.50
2022-12-03T23:41:31.544Z,1.50
2022-12-03T23:44:00.940Z,1.50
2022-12-03T23:46:29.398Z,1.50
2022-12-03T23:48:59.670Z,1.50
2022-12-03T23:51:28.116Z,1.50
2022-12-03T23:53:56.995Z,1.50
2022-12-03T23:56:30.324Z,1.50
2022-12-03T23:59:00.043Z,1.50
